Time;durP1;ratioP1;P1;durP2;ratioP2;P2;SDS_P1;SDS_P2;PMS_P1;PMS_P2;Temp;Humidity;BMP_temperature;BMP_pressure;BME280_temperature;BME280_humidity;BME280_pressure;Samples;Min_cycle;Max_cycle;Signal;HPM_P1;HPM_P2
2024/03/24 00:01:07;;;;;;;16.60;8.30;;;;;;;2.25;83.05;99906.50;104689;1260;73131;-67
2024/03/24 00:03:53;;;;;;;20.50;9.30;;;;;;;2.24;83.10;99903.32;108654;1257;138742;-67
2024/03/24 00:06:20;;;;;;;16.50;8.90;;;;;;;2.23;83.11;99905.85;105936;1256;61978;-67
2024/03/24 00:08:46;;;;;;;19.70;9.10;;;;;;;2.23;83.10;99904.97;104755;1257;75474;-66
2024/03/24 00:11:13;;;;;;;20.80;9.10;;;;;;;2.23;83.11;99906.86;104740;1256;138396;-66
2024/03/24 00:13:39;;;;;;;19.00;9.00;;;;;;;2.23;83.10;99915.54;104834;1258;73735;-66
2024/03/24 00:16:08;;;;;;;21.40;8.10;;;;;;;2.24;83.30;99917.86;104663;1261;138855;-66
2024/03/24 00:18:34;;;;;;;19.10;9.40;;;;;;;2.24;83.25;99921.99;108734;1257;60888;-66
2024/03/24 00:21:01;;;;;;;14.90;9.40;;;;;;;2.24;83.28;99919.22;108765;1258;75237;-66
2024/03/24 00:23:28;;;;;;;16.40;9.70;;;;;;;2.24;83.23;99913.48;108885;1257;138219;-66
2024/03/24 00:25:55;;;;;;;18.30;9.30;;;;;;;2.23;83.26;99918.14;108916;1257;72002;-66
2024/03/24 00:28:21;;;;;;;22.00;9.90;;;;;;;2.23;83.38;99916.09;108765;1256;139382;-66
2024/03/24 00:30:48;;;;;;;17.90;9.80;;;;;;;2.25;83.19;99910.78;108900;1256;60182;-67
2024/03/24 00:33:14;;;;;;;19.50;9.30;;;;;;;2.28;83.32;99904.37;105765;1256;75580;-66
2024/03/24 00:35:41;;;;;;;21.10;10.00;;;;;;;2.32;83.47;99900.90;104693;1261;67789;-65
2024/03/24 00:38:07;;;;;;;17.30;9.60;;;;;;;2.37;83.61;99899.19;104799;1259;61494;-65
2024/03/24 00:40:34;;;;;;;17.70;10.30;;;;;;;2.41;83.71;99897.79;104654;1257;138310;-65
2024/03/24 00:43:01;;;;;;;15.10;9.10;;;;;;;2.42;83.50;99897.02;104636;1256;62079;-65
2024/03/24 00:45:27;;;;;;;18.60;9.80;;;;;;;2.43;83.50;99892.36;104570;1258;138592;-65
2024/03/24 00:47:55;;;;;;;20.70;9.30;;;;;;;2.43;83.71;99891.67;104427;1265;66949;-65
2024/03/24 00:50:22;;;;;;;14.90;8.80;;;;;;;2.44;83.62;99890.86;104683;1260;73343;-65
2024/03/24 00:52:49;;;;;;;19.90;9.10;;;;;;;2.46;83.83;99889.91;104802;1256;138263;-65
2024/03/24 00:55:16;;;;;;;13.50;9.10;;;;;;;2.49;83.88;99884.48;104811;1262;61988;-65
2024/03/24 00:57:42;;;;;;;17.80;9.40;;;;;;;2.53;83.68;99882.42;104706;1256;139960;-65
2024/03/24 01:00:10;;;;;;;14.20;8.70;;;;;;;2.59;83.85;99876.59;104795;1259;67003;-65
2024/03/24 01:02:37;;;;;;;19.10;8.20;;;;;;;2.66;84.10;99875.86;108888;1257;73685;-66
2024/03/24 01:05:04;;;;;;;13.90;8.50;;;;;;;2.75;84.19;99876.05;108734;1256;138283;-66
2024/03/24 01:07:31;;;;;;;18.60;8.20;;;;;;;2.84;84.28;99870.89;109034;1256;60248;-66
2024/03/24 01:09:57;;;;;;;20.70;8.40;;;;;;;2.92;84.24;99863.97;108918;1256;138984;-66
2024/03/24 01:12:24;;;;;;;11.70;7.70;;;;;;;2.99;83.95;99865.61;108985;1256;66083;-67
2024/03/24 01:14:50;;;;;;;15.40;8.10;;;;;;;3.06;84.10;99859.84;108917;1256;72388;-66
2024/03/24 01:17:17;;;;;;;15.10;8.70;;;;;;;3.13;83.89;99856.49;105089;1256;138479;-66
2024/03/24 01:19:44;;;;;;;17.00;8.00;;;;;;;3.19;83.85;99854.30;104653;1260;62100;-65
2024/03/24 01:22:10;;;;;;;21.20;8.60;;;;;;;3.22;83.78;99850.61;104464;1256;138956;-65
2024/03/24 01:24:37;;;;;;;14.40;7.70;;;;;;;3.24;83.67;99843.55;104805;1259;65512;-65
2024/03/24 01:27:06;;;;;;;15.30;7.90;;;;;;;3.24;83.64;99843.58;104793;1259;73414;-65
2024/03/24 01:29:33;;;;;;;17.20;8.70;;;;;;;3.28;83.59;99841.67;104630;1256;138669;-64
2024/03/24 01:32:00;;;;;;;10.30;6.90;;;;;;;3.33;83.78;99838.21;104628;1257;62005;-65
2024/03/24 01:34:26;;;;;;;13.20;7.50;;;;;;;3.39;83.66;99837.38;104615;1259;138477;-66
2024/03/24 01:36:53;;;;;;;13.30;7.30;;;;;;;3.43;83.61;99840.67;104882;1260;67666;-65
2024/03/24 01:39:20;;;;;;;15.10;7.20;;;;;;;3.49;83.70;99840.05;104677;1256;138334;-65
2024/03/24 01:41:46;;;;;;;15.50;7.50;;;;;;;3.55;83.64;99838.69;104725;1262;62258;-65
2024/03/24 01:44:13;;;;;;;17.40;8.40;;;;;;;3.60;83.50;99834.89;104742;1256;61264;-65
2024/03/24 01:46:40;;;;;;;15.50;7.90;;;;;;;3.66;83.60;99836.52;104533;1256;138276;-65
2024/03/24 01:49:06;;;;;;;19.10;8.00;;;;;;;3.72;83.50;99835.88;104518;1262;65544;-65
2024/03/24 01:51:34;;;;;;;15.80;8.40;;;;;;;3.78;83.65;99828.29;104754;1261;138494;-65
2024/03/24 01:54:00;;;;;;;16.80;8.70;;;;;;;3.82;83.32;99829.13;104643;1256;62769;-65
2024/03/24 01:56:27;;;;;;;16.30;7.90;;;;;;;3.86;83.26;99825.63;104885;1256;62215;-66
2024/03/24 01:58:54;;;;;;;14.00;8.80;;;;;;;3.91;83.20;99827.90;104595;1256;138895;-64
2024/03/24 02:01:22;;;;;;;12.30;7.40;;;;;;;3.96;83.32;99823.75;104712;1260;66080;-65
2024/03/24 02:03:48;;;;;;;14.50;7.60;;;;;;;4.01;83.24;99822.19;108674;1256;138920;-65
2024/03/24 02:06:15;;;;;;;11.30;7.90;;;;;;;4.04;83.11;99822.14;104346;1258;62208;-64
2024/03/24 02:08:42;;;;;;;17.60;8.20;;;;;;;4.06;83.05;99815.09;104626;1259;62114;-64
2024/03/24 02:11:09;;;;;;;13.90;8.30;;;;;;;4.11;83.14;99817.70;104614;1256;138516;-66
2024/03/24 02:13:35;;;;;;;14.40;7.70;;;;;;;4.15;82.98;99814.53;104740;1256;66739;-66
2024/03/24 02:16:02;;;;;;;14.70;8.80;;;;;;;4.18;83.00;99813.60;104610;1259;138197;-65
2024/03/24 02:18:29;;;;;;;15.70;9.40;;;;;;;4.17;82.77;99811.48;104771;1256;62079;-64
2024/03/24 02:20:55;;;;;;;24.00;11.60;;;;;;;4.19;82.82;99811.38;104791;1256;62106;-64
2024/03/24 02:23:22;;;;;;;19.60;11.00;;;;;;;4.18;82.63;99807.69;104788;1259;137782;-64
2024/03/24 02:25:49;;;;;;;34.60;16.00;;;;;;;4.17;82.68;99804.19;104873;1262;65246;-66
2024/03/24 02:28:16;;;;;;;25.50;12.60;;;;;;;4.17;82.71;99804.02;104577;1258;138433;-66
2024/03/24 02:30:44;;;;;;;23.30;10.50;;;;;;;4.18;82.68;99802.12;104707;1259;62020;-65
2024/03/24 02:33:10;;;;;;;16.90;8.70;;;;;;;4.18;82.58;99800.40;104729;1256;62069;-66
2024/03/24 02:35:40;;;;;;;15.00;8.30;;;;;;;4.18;82.71;99797.09;104464;1259;138426;-63
2024/03/24 02:38:06;;;;;;;16.10;8.30;;;;;;;4.18;82.65;99796.41;107234;1257;65051;-63
2024/03/24 02:40:33;;;;;;;12.60;7.50;;;;;;;4.18;82.48;99792.77;104896;1259;139383;-63
2024/03/24 02:43:00;;;;;;;12.90;8.00;;;;;;;4.17;82.52;99794.11;104729;1259;62385;-64
2024/03/24 02:45:26;;;;;;;13.90;8.10;;;;;;;4.15;82.40;99790.23;104781;1256;138704;-64
2024/03/24 02:47:53;;;;;;;15.40;8.60;;;;;;;4.14;82.46;99790.34;104681;1257;77123;-64
2024/03/24 02:50:19;;;;;;;12.50;7.50;;;;;;;4.12;82.39;99788.73;104721;1259;67348;-64
2024/03/24 02:52:46;;;;;;;12.20;8.20;;;;;;;4.08;82.30;99789.29;104762;1256;138418;-64
2024/03/24 02:55:13;;;;;;;15.30;7.40;;;;;;;4.00;82.07;99785.54;104655;1262;62139;-63
2024/03/24 02:57:40;;;;;;;12.50;7.30;;;;;;;3.91;81.98;99783.83;104732;1256;138821;-63
2024/03/24 03:00:09;;;;;;;15.90;8.30;;;;;;;3.80;81.90;99781.17;104803;1259;74302;-62
2024/03/24 03:02:35;;;;;;;13.40;7.60;;;;;;;3.69;81.87;99784.92;108359;1257;66251;-63
2024/03/24 03:05:02;;;;;;;13.40;8.30;;;;;;;3.59;81.79;99782.30;104759;1256;137676;-63
2024/03/24 03:07:29;;;;;;;13.10;8.00;;;;;;;3.48;81.73;99784.68;104803;1260;62059;-63
2024/03/24 03:09:55;;;;;;;11.10;7.90;;;;;;;3.37;81.85;99787.89;104734;1260;137959;-63
2024/03/24 03:12:23;;;;;;;10.90;7.40;;;;;;;3.25;81.77;99790.73;104784;1257;75091;-63
2024/03/24 03:14:50;;;;;;;15.80;8.70;;;;;;;3.14;81.88;99792.92;104842;1256;65064;-63
2024/03/24 03:17:16;;;;;;;12.50;7.70;;;;;;;3.03;81.81;99794.73;104645;1259;138265;-64
2024/03/24 03:19:43;;;;;;;12.90;8.50;;;;;;;2.94;81.93;99793.33;104817;1256;62172;-63
2024/03/24 03:22:09;;;;;;;11.60;7.60;;;;;;;2.86;82.17;99794.92;104641;1256;139334;-63
2024/03/24 03:24:36;;;;;;;16.30;8.40;;;;;;;2.79;82.27;99790.30;104766;1257;74446;-63
2024/03/24 03:27:03;;;;;;;17.00;8.40;;;;;;;2.72;82.26;99788.28;104792;1259;67200;-63
2024/03/24 03:29:30;;;;;;;15.60;8.10;;;;;;;2.64;82.30;99787.95;108787;1256;138962;-63
2024/03/24 03:31:56;;;;;;;10.20;7.90;;;;;;;2.57;82.35;99789.06;108952;1256;59824;-63
2024/03/24 03:34:23;;;;;;;12.00;7.80;;;;;;;2.50;82.54;99793.65;108867;1256;138332;-63
2024/03/24 03:36:49;;;;;;;12.90;7.80;;;;;;;2.46;82.50;99792.59;108982;1256;75824;-63
2024/03/24 03:39:16;;;;;;;12.50;7.90;;;;;;;2.42;82.51;99788.95;108968;1259;67264;-64
2024/03/24 03:41:43;;;;;;;10.50;7.60;;;;;;;2.38;82.62;99788.76;108826;1256;71615;-63
2024/03/24 03:44:10;;;;;;;13.00;7.80;;;;;;;2.35;82.62;99790.02;107022;1265;62001;-64
2024/03/24 03:46:36;;;;;;;11.50;7.70;;;;;;;2.32;82.71;99792.17;104678;1259;138269;-63
2024/03/24 03:49:03;;;;;;;15.90;7.70;;;;;;;2.31;82.86;99793.15;104652;1259;61944;-63
2024/03/24 03:51:37;;;;;;;11.00;8.20;;;;;;;2.29;82.73;99796.72;108601;1256;138563;-64
2024/03/24 03:54:04;;;;;;;17.70;8.90;;;;;;;2.28;82.92;99793.05;108809;1256;70731;-64
2024/03/24 03:56:31;;;;;;;12.70;7.10;;;;;;;2.28;83.05;99793.39;104814;1257;62070;-64
2024/03/24 03:58:57;;;;;;;10.80;7.40;;;;;;;2.29;83.11;99794.45;104634;1259;139188;-63
2024/03/24 04:01:24;;;;;;;11.90;7.60;;;;;;;2.30;83.29;99790.71;104680;1261;62144;-63
2024/03/24 04:03:50;;;;;;;12.10;7.90;;;;;;;2.33;83.32;99793.77;104603;1260;139561;-63
2024/03/24 04:06:17;;;;;;;15.10;7.50;;;;;;;2.38;83.51;99797.27;104759;1260;73489;-64
2024/03/24 04:08:43;;;;;;;9.20;7.20;;;;;;;2.45;83.77;99796.70;104759;1259;64026;-63
2024/03/24 04:11:10;;;;;;;9.40;7.00;;;;;;;2.50;83.83;99794.50;104675;1256;138143;-63
2024/03/24 04:13:37;;;;;;;12.50;7.60;;;;;;;2.55;83.77;99790.67;104667;1262;76379;-63
2024/03/24 04:16:06;;;;;;;9.60;6.40;;;;;;;2.56;83.71;99788.67;104671;1259;138388;-64
2024/03/24 04:18:33;;;;;;;10.30;7.30;;;;;;;2.57;83.69;99784.55;104677;1256;71771;-64
2024/03/24 04:21:03;;;;;;;16.70;7.70;;;;;;;2.60;83.83;99782.59;104905;1259;62106;-65
2024/03/24 04:23:29;;;;;;;14.10;7.50;;;;;;;2.65;83.88;99782.99;104684;1261;138702;-64
2024/03/24 04:25:56;;;;;;;8.60;6.80;;;;;;;2.73;84.05;99785.05;104683;1260;76077;-64
2024/03/24 04:28:23;;;;;;;16.90;8.60;;;;;;;2.81;84.08;99784.63;104456;1259;138167;-64
2024/03/24 04:30:50;;;;;;;9.90;6.70;;;;;;;2.88;84.05;99784.45;104504;1264;73342;-64
2024/03/24 04:33:16;;;;;;;14.60;8.00;;;;;;;2.96;84.13;99782.13;104523;1262;62202;-63
2024/03/24 04:35:43;;;;;;;11.10;7.30;;;;;;;3.03;84.09;99784.48;104603;1261;62038;-63
2024/03/24 04:38:10;;;;;;;9.50;7.30;;;;;;;3.11;84.13;99787.41;104623;1259;75699;-63
2024/03/24 04:40:37;;;;;;;11.00;7.80;;;;;;;3.19;84.18;99791.17;104492;1262;138166;-63
2024/03/24 04:43:07;;;;;;;10.60;6.50;;;;;;;3.28;84.22;99790.84;108725;1259;73175;-63
2024/03/24 04:45:34;;;;;;;14.20;7.00;;;;;;;3.37;84.09;99791.88;106790;1264;138380;-64
2024/03/24 04:48:02;;;;;;;9.70;7.20;;;;;;;3.43;83.91;99794.54;108691;1259;60508;-64
2024/03/24 04:50:28;;;;;;;11.40;7.00;;;;;;;3.47;83.90;99792.27;107348;1259;75535;-64
2024/03/24 04:52:55;;;;;;;11.70;7.20;;;;;;;3.51;83.68;99793.98;104765;1261;138346;-64
2024/03/24 04:55:22;;;;;;;14.00;7.30;;;;;;;3.55;83.68;99790.66;104690;1259;73737;-64
2024/03/24 04:57:48;;;;;;;15.10;7.00;;;;;;;3.60;83.61;99788.91;104492;1265;138441;-63
2024/03/24 05:00:16;;;;;;;10.00;6.20;;;;;;;3.66;83.69;99791.59;104567;1264;62494;-64
2024/03/24 05:02:42;;;;;;;8.20;6.30;;;;;;;3.74;83.68;99788.90;104570;1262;75830;-64
2024/03/24 05:05:10;;;;;;;14.50;6.90;;;;;;;3.81;83.63;99789.36;104460;1261;139901;-64
2024/03/24 05:07:37;;;;;;;10.10;6.50;;;;;;;3.88;83.55;99795.35;104988;1263;73774;-62
2024/03/24 05:10:04;;;;;;;12.10;6.40;;;;;;;3.96;83.64;99799.80;104615;1263;138482;-64
2024/03/24 05:12:31;;;;;;;10.10;6.30;;;;;;;4.06;83.65;99801.18;108794;1259;60458;-65
2024/03/24 05:14:58;;;;;;;10.90;5.90;;;;;;;4.13;83.59;99800.91;108863;1259;76276;-65
2024/03/24 05:17:25;;;;;;;9.40;5.90;;;;;;;4.20;83.52;99803.42;108667;1259;138378;-64
2024/03/24 05:19:52;;;;;;;9.50;5.70;;;;;;;4.26;83.40;99803.98;105313;1261;72224;-64
2024/03/24 05:22:18;;;;;;;7.50;5.20;;;;;;;4.32;83.36;99801.41;104549;1257;138405;-63
2024/03/24 05:24:45;;;;;;;10.30;6.30;;;;;;;4.39;83.29;99802.02;104840;1261;62161;-63
2024/03/24 05:27:15;;;;;;;13.10;5.90;;;;;;;4.45;83.23;99798.58;108872;1261;76443;-64
2024/03/24 05:29:41;;;;;;;9.80;5.70;;;;;;;4.53;83.35;99793.61;108798;1258;138494;-64
2024/03/24 05:32:08;;;;;;;9.40;5.70;;;;;;;4.59;83.17;99796.25;104913;1257;71984;-63
2024/03/24 05:34:35;;;;;;;11.80;5.60;;;;;;;4.64;82.96;99791.89;104738;1262;138123;-64
2024/03/24 05:37:01;;;;;;;8.90;5.80;;;;;;;4.70;82.86;99795.39;104807;1262;62095;-64
2024/03/24 05:39:28;;;;;;;8.20;5.50;;;;;;;4.80;83.01;99792.05;104664;1259;138825;-65
2024/03/24 05:41:55;;;;;;;11.60;5.20;;;;;;;4.91;82.97;99795.91;104878;1262;64774;-64
2024/03/24 05:44:21;;;;;;;10.20;5.30;;;;;;;4.99;82.69;99796.85;104683;1264;73918;-63
2024/03/24 05:46:48;;;;;;;9.10;5.00;;;;;;;5.04;82.62;99796.34;104727;1262;138442;-63
2024/03/24 05:49:14;;;;;;;8.00;4.80;;;;;;;5.11;82.49;99794.81;104781;1258;62052;-63
2024/03/24 05:51:41;;;;;;;9.00;4.90;;;;;;;5.15;82.26;99795.28;104651;1262;138343;-64
2024/03/24 05:54:08;;;;;;;9.70;4.80;;;;;;;5.19;82.15;99794.86;104658;1256;65270;-64
2024/03/24 05:56:34;;;;;;;10.00;4.90;;;;;;;5.20;82.03;99798.58;104645;1258;71934;-64
2024/03/24 05:59:01;;;;;;;8.80;5.00;;;;;;;5.22;81.85;99793.08;104627;1260;138524;-63
2024/03/24 06:01:27;;;;;;;10.00;5.20;;;;;;;5.23;81.84;99796.23;104652;1261;63182;-64
2024/03/24 06:03:54;;;;;;;12.00;6.20;;;;;;;5.28;81.72;99794.96;104548;1257;137703;-64
2024/03/24 06:06:21;;;;;;;10.40;5.80;;;;;;;5.38;81.81;99796.68;104735;1262;67677;-65
2024/03/24 06:08:47;;;;;;;9.60;5.10;;;;;;;5.50;81.86;99791.47;104684;1261;71010;-64
2024/03/24 06:11:14;;;;;;;10.10;4.90;;;;;;;5.67;81.96;99791.63;104731;1258;138078;-64
2024/03/24 06:13:40;;;;;;;12.40;6.00;;;;;;;5.85;81.82;99789.71;104626;1260;62185;-64
2024/03/24 06:16:07;;;;;;;12.70;5.40;;;;;;;6.03;81.65;99784.49;104698;1258;138933;-64
2024/03/24 06:18:34;;;;;;;11.20;5.10;;;;;;;6.16;81.45;99786.94;104658;1262;66710;-64
2024/03/24 06:21:00;;;;;;;11.80;5.40;;;;;;;6.25;81.11;99783.36;104705;1258;73331;-63
2024/03/24 06:23:27;;;;;;;9.70;4.70;;;;;;;6.31;80.82;99781.75;104653;1257;138075;-64
2024/03/24 06:25:53;;;;;;;8.50;4.80;;;;;;;6.32;80.50;99782.65;104687;1257;62160;-64
2024/03/24 06:28:20;;;;;;;10.30;5.20;;;;;;;6.30;80.22;99783.15;104884;1257;137491;-64
2024/03/24 06:30:51;;;;;;;12.10;5.10;;;;;;;6.34;80.17;99780.27;104924;1262;66523;-65
2024/03/24 06:33:18;;;;;;;11.70;5.40;;;;;;;6.42;80.08;99779.95;108765;1257;137877;-65
2024/03/24 06:35:45;;;;;;;7.90;4.80;;;;;;;6.53;80.06;99785.83;108751;1259;60041;-65
2024/03/24 06:38:11;;;;;;;10.70;5.40;;;;;;;6.63;79.95;99781.54;108822;1256;60163;-65
2024/03/24 06:40:38;;;;;;;15.10;5.70;;;;;;;6.72;79.78;99780.90;108775;1257;137876;-65
2024/03/24 06:43:19;;;;;;;15.50;5.70;;;;;;;6.74;79.29;99779.55;108878;1262;66416;-65
2024/03/24 06:46:02;;;;;;;14.30;5.60;;;;;;;6.71;79.10;99784.36;108670;1258;138797;-63
2024/03/24 06:48:40;;;;;;;13.50;6.10;;;;;;;6.70;78.84;99780.31;108799;1257;59758;-63
2024/03/24 06:51:12;;;;;;;12.30;5.20;;;;;;;6.71;78.81;99787.15;108718;1259;59913;-64
2024/03/24 06:53:39;;;;;;;11.40;5.70;;;;;;;6.80;78.87;99786.15;108653;1259;137834;-63
2024/03/24 06:56:05;;;;;;;15.80;5.10;;;;;;;6.96;78.79;99787.25;108920;1259;66056;-63
2024/03/24 06:58:32;;;;;;;13.60;5.90;;;;;;;7.06;78.55;99786.09;108708;1257;137697;-63
2024/03/24 07:00:59;;;;;;;11.00;5.80;;;;;;;7.19;78.48;99791.79;108921;1260;59652;-63
2024/03/24 07:03:25;;;;;;;13.10;6.20;;;;;;;7.32;78.22;99794.88;108783;1262;138436;-63
2024/03/24 07:05:52;;;;;;;11.90;6.30;;;;;;;7.38;77.78;99791.02;108814;1263;75003;-64
2024/03/24 07:08:22;;;;;;;15.60;7.70;;;;;;;7.31;77.38;99794.33;108931;1256;66657;-65
2024/03/24 07:10:52;;;;;;;12.60;7.10;;;;;;;7.20;77.01;99791.11;108850;1257;137907;-65
2024/03/24 07:13:19;;;;;;;18.60;11.20;;;;;;;7.06;76.68;99792.35;108875;1257;59812;-64
2024/03/24 07:15:45;;;;;;;16.30;10.20;;;;;;;6.92;76.63;99790.98;108830;1257;138605;-63
2024/03/24 07:18:12;;;;;;;16.40;9.30;;;;;;;6.82;76.62;99789.52;108932;1260;75538;-64
2024/03/24 07:20:38;;;;;;;30.30;15.90;;;;;;;6.84;76.89;99790.09;108913;1260;66110;-64
2024/03/24 07:23:05;;;;;;;17.40;8.60;;;;;;;6.97;77.11;99789.35;108927;1257;138986;-63
2024/03/24 07:25:32;;;;;;;16.50;9.30;;;;;;;7.15;77.32;99789.61;109017;1256;59845;-64
2024/03/24 07:27:58;;;;;;;14.60;7.90;;;;;;;7.33;77.21;99785.47;108918;1256;138445;-63
2024/03/24 07:30:25;;;;;;;17.60;8.60;;;;;;;7.47;77.09;99784.73;109002;1256;75562;-63
2024/03/24 07:32:51;;;;;;;16.20;9.10;;;;;;;7.63;76.94;99786.81;108935;1255;65572;-63
2024/03/24 07:35:18;;;;;;;23.90;16.30;;;;;;;7.73;76.45;99789.48;108914;1259;138014;-64
2024/03/24 07:37:44;;;;;;;19.40;12.80;;;;;;;7.75;75.98;99786.73;108996;1257;59811;-64
2024/03/24 07:40:11;;;;;;;17.10;10.40;;;;;;;7.67;75.54;99787.77;108882;1260;137980;-64
2024/03/24 07:42:39;;;;;;;20.00;11.30;;;;;;;7.55;75.12;99789.97;108971;1257;76520;-64
2024/03/24 07:45:06;;;;;;;38.40;25.40;;;;;;;7.47;75.07;99786.65;104881;1261;67037;-63
2024/03/24 07:47:33;;;;;;;51.20;31.00;;;;;;;7.44;75.21;99786.77;104645;1257;137979;-63
2024/03/24 07:50:12;;;;;;;39.10;24.80;;;;;;;7.45;75.24;99788.19;105016;1263;62230;-63
2024/03/24 07:52:48;;;;;;;34.60;22.50;;;;;;;7.54;75.53;99786.30;104742;1257;138965;-64
2024/03/24 07:55:15;;;;;;;29.90;18.50;;;;;;;7.79;75.73;99785.58;104821;1256;73693;-64
2024/03/24 07:57:42;;;;;;;15.00;11.40;;;;;;;8.05;75.46;99787.67;104749;1262;139939;-62
2024/03/24 08:00:12;;;;;;;17.50;11.60;;;;;;;8.20;75.34;99785.54;104736;1263;71356;-63
2024/03/24 08:02:39;;;;;;;22.60;13.30;;;;;;;8.36;74.98;99790.04;104782;1256;62164;-63
2024/03/24 08:05:06;;;;;;;18.30;10.80;;;;;;;8.53;74.77;99789.84;104738;1256;137967;-63
2024/03/24 08:07:33;;;;;;;15.00;7.30;;;;;;;8.68;74.42;99789.39;104806;1263;76562;-63
2024/03/24 08:09:59;;;;;;;21.30;13.60;;;;;;;8.76;73.96;99788.30;104853;1262;138333;-63
2024/03/24 08:12:26;;;;;;;16.10;9.80;;;;;;;8.85;73.68;99787.07;108852;1257;72869;-63
2024/03/24 08:14:53;;;;;;;19.00;11.80;;;;;;;9.03;73.38;99784.55;109036;1262;59993;-63
2024/03/24 08:17:19;;;;;;;33.90;18.10;;;;;;;9.11;72.92;99785.54;106331;1259;138612;-63
2024/03/24 08:19:46;;;;;;;25.20;14.70;;;;;;;9.24;72.79;99788.73;104815;1257;76116;-63
2024/03/24 08:22:12;;;;;;;20.00;14.10;;;;;;;9.43;72.44;99786.20;104913;1261;137963;-62
2024/03/24 08:24:39;;;;;;;19.20;14.20;;;;;;;9.47;71.84;99786.25;104514;1263;72360;-63
2024/03/24 08:27:10;;;;;;;23.00;15.40;;;;;;;9.51;71.76;99784.02;104775;1260;62163;-64
2024/03/24 08:29:36;;;;;;;13.40;8.30;;;;;;;9.53;71.50;99788.80;104762;1261;138128;-64
2024/03/24 08:32:03;;;;;;;10.30;6.70;;;;;;;9.52;71.26;99787.37;105019;1261;75638;-63
2024/03/24 08:34:30;;;;;;;12.10;7.60;;;;;;;9.58;71.21;99788.48;104683;1259;137823;-62
2024/03/24 08:36:57;;;;;;;12.20;6.70;;;;;;;9.70;71.10;99786.03;107365;1255;586223;-62
2024/03/24 08:39:23;;;;;;;23.40;15.40;;;;;;;9.83;71.03;99781.46;108904;1257;138266;-63
2024/03/24 08:41:50;;;;;;;16.40;9.00;;;;;;;10.01;70.96;99782.89;105800;1257;62060;-63
2024/03/24 08:44:16;;;;;;;29.80;24.50;;;;;;;10.03;70.30;99780.13;104905;1260;74735;-62
2024/03/24 08:46:43;;;;;;;16.70;10.40;;;;;;;10.11;70.31;99777.77;104690;1265;138304;-63
2024/03/24 08:49:10;;;;;;;26.90;20.20;;;;;;;10.22;70.07;99778.75;105010;1267;73917;-63
2024/03/24 08:51:37;;;;;;;18.80;12.60;;;;;;;10.27;69.88;99778.29;104717;1260;138688;-63
2024/03/24 08:54:04;;;;;;;11.90;6.20;;;;;;;10.40;69.55;99777.75;104774;1260;62029;-63
2024/03/24 08:56:30;;;;;;;15.20;8.90;;;;;;;10.49;69.10;99780.47;104793;1260;76011;-64
2024/03/24 08:58:57;;;;;;;19.60;12.60;;;;;;;10.57;68.99;99780.02;104744;1260;138229;-63
2024/03/24 09:01:23;;;;;;;19.70;12.70;;;;;;;10.72;68.88;99776.29;104863;1258;73157;-63
2024/03/24 09:03:50;;;;;;;14.60;6.10;;;;;;;10.85;68.57;99778.33;104802;1260;138344;-63
2024/03/24 09:06:17;;;;;;;10.90;4.70;;;;;;;10.85;67.96;99776.40;104958;1261;62247;-62
2024/03/24 09:08:44;;;;;;;8.30;4.10;;;;;;;10.73;67.29;99774.38;104905;1256;76633;-63
2024/03/24 09:11:10;;;;;;;8.80;4.30;;;;;;;10.47;66.95;99778.69;104775;1260;137997;-65
2024/03/24 09:13:37;;;;;;;12.50;5.40;;;;;;;10.13;66.65;99776.71;104733;1256;73666;-63
2024/03/24 09:16:04;;;;;;;12.70;4.80;;;;;;;10.00;67.08;99773.95;104717;1260;138253;-64
2024/03/24 09:18:31;;;;;;;8.60;4.40;;;;;;;10.07;67.12;99778.06;108897;1256;61341;-62
2024/03/24 09:21:04;;;;;;;11.00;4.90;;;;;;;10.20;67.15;99778.56;105439;1257;75564;-64
2024/03/24 09:23:30;;;;;;;11.40;6.50;;;;;;;10.32;66.80;99779.23;104860;1260;137862;-64
2024/03/24 09:25:57;;;;;;;11.30;6.20;;;;;;;10.40;66.67;99775.81;104816;1261;62172;-62
2024/03/24 09:28:24;;;;;;;13.40;4.70;;;;;;;10.40;66.38;99776.70;104757;1261;137925;-61
2024/03/24 09:30:56;;;;;;;12.50;3.90;;;;;;;10.40;66.33;99776.35;104886;1257;62172;-61
2024/03/24 09:33:29;;;;;;;11.20;4.70;;;;;;;10.47;66.30;99774.48;104866;1262;140878;-62
2024/03/24 09:36:02;;;;;;;9.40;4.00;;;;;;;10.62;66.30;99767.77;108888;1256;65635;-62
2024/03/24 09:38:28;;;;;;;10.50;4.30;;;;;;;10.81;66.17;99763.02;108788;1257;71733;-62
2024/03/24 09:40:55;;;;;;;12.20;3.80;;;;;;;11.03;65.97;99765.83;104676;1257;138182;-62
2024/03/24 09:43:24;;;;;;;6.80;3.50;;;;;;;11.17;65.34;99760.13;104824;1258;62079;-62
2024/03/24 09:45:51;;;;;;;7.20;3.30;;;;;;;11.02;64.53;99762.14;104739;1257;138416;-62
2024/03/24 09:48:18;;;;;;;8.70;3.40;;;;;;;10.81;64.20;99754.42;104722;1257;67189;-62
2024/03/24 09:50:44;;;;;;;7.30;3.90;;;;;;;10.72;64.24;99757.52;104924;1260;73705;-62
2024/03/24 09:53:11;;;;;;;7.30;3.40;;;;;;;10.75;64.55;99755.95;104816;1260;137945;-62
2024/03/24 09:55:38;;;;;;;8.30;3.80;;;;;;;10.78;64.13;99757.73;108941;1257;60038;-63
2024/03/24 09:58:04;;;;;;;8.50;3.60;;;;;;;10.87;64.20;99759.40;108875;1257;138050;-63
2024/03/24 10:00:31;;;;;;;7.60;4.00;;;;;;;11.04;63.81;99758.12;105361;1263;66414;-62
2024/03/24 10:02:58;;;;;;;8.20;3.70;;;;;;;11.17;63.67;99758.02;104961;1257;73854;-62
2024/03/24 10:05:24;;;;;;;9.70;4.00;;;;;;;11.37;63.54;99758.67;104764;1257;138027;-62
2024/03/24 10:07:51;;;;;;;11.30;4.40;;;;;;;11.42;63.30;99759.41;104891;1257;62182;-62
2024/03/24 10:10:18;;;;;;;9.80;3.90;;;;;;;11.35;63.03;99759.38;104664;1262;138058;-63
2024/03/24 10:12:54;;;;;;;10.50;4.10;;;;;;;11.26;62.75;99758.45;104875;1261;67305;-62
2024/03/24 10:15:23;;;;;;;10.40;4.70;;;;;;;11.16;62.62;99756.45;108935;1257;71820;-62
2024/03/24 10:18:07;;;;;;;10.50;4.30;;;;;;;11.12;62.75;99753.95;107458;1257;60572;-62
2024/03/24 10:20:34;;;;;;;6.50;4.30;;;;;;;11.15;62.74;99751.16;104875;1260;62138;-62
2024/03/24 10:23:01;;;;;;;8.70;4.20;;;;;;;11.16;62.71;99755.57;108860;1256;138260;-62
2024/03/24 10:25:29;;;;;;;9.10;4.40;;;;;;;11.03;62.18;99755.63;108989;1256;64243;-62
2024/03/24 10:27:56;;;;;;;9.70;4.60;;;;;;;10.90;62.20;99750.10;105417;1260;138289;-62
2024/03/24 10:30:23;;;;;;;8.70;4.30;;;;;;;10.80;62.19;99753.71;104873;1257;62078;-62
2024/03/24 10:32:49;;;;;;;9.20;3.90;;;;;;;10.82;62.51;99754.61;108531;1256;60536;-62
2024/03/24 10:35:16;;;;;;;8.40;4.50;;;;;;;10.84;62.32;99754.29;104741;1257;138065;-62
2024/03/24 10:37:43;;;;;;;7.80;4.00;;;;;;;10.72;61.94;99754.53;104829;1261;67333;-61
2024/03/24 10:40:13;;;;;;;7.70;4.20;;;;;;;10.62;61.98;99750.07;108724;1257;137853;-62
2024/03/24 10:42:52;;;;;;;9.20;4.30;;;;;;;10.62;62.11;99749.89;108957;1256;59843;-62
2024/03/24 10:45:23;;;;;;;11.10;4.80;;;;;;;10.66;62.00;99744.48;106674;1257;61057;-62
2024/03/24 10:47:53;;;;;;;8.20;4.00;;;;;;;10.63;61.95;99746.39;105840;1257;137790;-62
2024/03/24 10:50:20;;;;;;;7.80;4.60;;;;;;;10.55;61.72;99744.91;107624;1264;66125;-62
2024/03/24 10:52:47;;;;;;;8.30;4.40;;;;;;;10.58;61.95;99743.01;104599;1261;138613;-61
2024/03/24 10:55:13;;;;;;;7.70;3.80;;;;;;;10.69;61.85;99742.40;104837;1257;62456;-62
2024/03/24 10:57:41;;;;;;;9.30;3.70;;;;;;;10.80;61.70;99742.14;104581;1257;138578;-61
2024/03/24 11:00:13;;;;;;;10.20;4.30;;;;;;;10.90;61.67;99738.88;104807;1259;76634;-62
2024/03/24 11:02:41;;;;;;;8.10;3.90;;;;;;;10.93;61.32;99738.73;105718;1257;65314;-61
2024/03/24 11:05:08;;;;;;;8.50;3.80;;;;;;;10.96;61.24;99735.58;104716;1260;139014;-62
2024/03/24 11:07:37;;;;;;;9.30;3.80;;;;;;;11.04;61.15;99734.77;107391;1257;62122;-62
2024/03/24 11:10:04;;;;;;;7.70;3.50;;;;;;;11.11;60.94;99733.77;108810;1256;138180;-62
2024/03/24 11:12:35;;;;;;;8.60;4.30;;;;;;;11.26;60.66;99735.96;108936;1256;74516;-62
2024/03/24 11:15:02;;;;;;;8.60;3.60;;;;;;;11.32;60.35;99738.64;108916;1256;65359;-62
2024/03/24 11:17:28;;;;;;;6.30;3.80;;;;;;;11.43;60.18;99736.40;108911;1256;138809;-62
2024/03/24 11:20:01;;;;;;;11.50;3.50;;;;;;;11.53;59.92;99734.52;108969;1256;59698;-62
2024/03/24 11:22:44;;;;;;;7.10;3.50;;;;;;;11.56;59.29;99731.20;108687;1257;138498;-62